Latest Weather Observations for Taree Airport

IDN60801

Issued at 2:35 pm EST Thursday 24 April 2014 (issued every 30 minutes, with the page automatically refreshed every 10 minutes)

About weather observations | Map of weather stations | Latest weather observations for NSW | Other Formats
Station Details ID: 060141 Name: TAREE AIRPORT AWS Lat: -31.89 Lon: 152.51 Height: 8.0 m
Data from the previous 72 hours. | See also: Recent months at Taree Airport
Date/Time
EST
Temp
°C
App
Temp
°C
Dew
Point
Rel
Hum
%
Delta-T
°C
Wind Press
QNH
hPa
Press
MSL
hPa
Rain
since 9 am
mm
Dir
 
Spd
km/h
Gust
km/h
Spd
kts
Gust
kts
24/02:30pm 30.9 28.2 7.4 23 12.8 W 11 15 6 8 1011.7 - 0.0
24/02:00pm 31.0 29.2 9.3 26 12.2 WNW 9 17 5 9 1011.8 - 0.0
24/01:30pm 30.0 26.8 10.0 29 11.3 WSW 17 26 9 14 1012.0 - 0.0
24/01:00pm 30.0 27.8 12.0 33 10.5 W 15 26 8 14 1012.2 - 0.0
24/12:30pm 29.8 27.9 11.8 33 10.5 NW 13 20 7 11 1012.5 - 0.0
24/12:00pm 28.8 27.7 11.8 35 9.8 W 9 17 5 9 1012.9 1012.8 0.0
24/11:30am 27.8 28.5 15.5 47 7.5 S 6 11 3 6 1013.3 - 0.0
24/11:00am 26.8 26.9 14.5 46 7.4 SW 7 9 4 5 1013.9 - 0.0
24/10:30am 26.2 27.4 15.0 50 6.7 W 2 11 1 6 1014.3 - 0.0
24/10:00am 24.9 25.8 15.2 54 5.8 NNE 4 7 2 4 1014.6 - 0.0
24/09:30am 23.1 24.6 15.7 63 4.5 WNW 2 7 1 4 1014.8 - 0.0
24/09:00am 20.8 21.1 14.9 69 3.5 WSW 7 11 4 6 1014.9 1014.8 0.0
24/08:30am 19.0 19.1 14.5 75 2.6 WNW 7 9 4 5 1015.0 - 0.0
24/08:00am 17.7 18.0 14.6 82 1.8 W 6 9 3 5 1014.8 - 0.0
24/07:30am 16.0 16.3 14.4 90 0.9 W 6 9 3 5 1014.7 - 0.0
24/07:00am 14.7 14.0 14.4 98 0.2 W 11 13 6 7 1014.4 - 0.0
24/06:30am 12.3 12.2 12.0 98 0.2 NNW 4 7 2 4 1014.2 - 0.0
24/06:00am 12.5 13.2 12.2 98 0.2 NW 0 0 0 0 1014.1 1014.0 0.0
24/05:30am 12.9 13.7 12.6 98 0.2 CALM 0 0 0 0 1013.9 - 0.0
24/05:00am 13.2 14.1 12.9 98 0.2 CALM 0 0 0 0 1013.9 - 0.0
24/04:30am 12.8 13.5 12.3 97 0.3 CALM 0 0 0 0 1013.9 - 0.0
24/04:00am 13.7 13.9 13.1 96 0.3 NW 4 6 2 3 1013.8 - 0.0
24/03:30am 13.6 14.5 12.8 95 0.4 CALM 0 0 0 0 1013.7 - 0.0
24/03:00am 14.8 16.1 14.2 96 0.3 CALM 0 0 0 0 1013.8 1013.7 0.0
24/02:30am 14.5 14.6 13.9 96 0.3 W 6 7 3 4 1014.0 - 0.0
24/02:00am 14.6 15.9 14.0 96 0.3 CALM 0 0 0 0 1014.4 - 0.0
24/01:30am 14.4 15.5 13.6 95 0.4 CALM 0 0 0 0 1014.7 - 0.0
24/01:00am 15.7 17.3 14.9 95 0.5 CALM 0 0 0 0 1014.8 - 0.0
24/12:30am 15.8 17.4 15.0 95 0.5 CALM 0 0 0 0 1015.0 - 0.0
24/12:00am 15.7 17.2 14.7 94 0.6 NW 0 0 0 0 1015.2 1015.1 0.0
 
Date/Time
EST
Temp
°C
App
Temp
°C
Dew
Point
Rel
Hum
%
Delta-T
°C
Wind Press
QNH
hPa
Press
MSL
hPa
Rain
since 9 am
mm
Dir
 
Spd
km/h
Gust
km/h
Spd
kts
Gust
kts
23/11:30pm 16.0 17.5 14.7 92 0.7 CALM 0 0 0 0 1015.4 - 0.0
23/11:00pm 16.6 18.4 15.6 94 0.6 CALM 0 0 0 0 1015.5 - 0.0
23/10:30pm 16.6 18.3 15.3 92 0.8 CALM 0 4 0 2 1015.7 - 0.0
23/10:00pm 17.0 18.9 15.7 92 0.8 CALM 0 0 0 0 1015.7 - 0.0
23/09:30pm 17.5 17.9 16.4 93 0.7 NW 9 9 5 5 1015.9 - 0.0
23/09:00pm 17.1 18.9 15.6 91 0.9 CALM 0 0 0 0 1016.0 1015.9 0.0
23/08:30pm 18.9 21.3 17.0 89 1.1 CALM 0 0 0 0 1016.0 - 0.0
23/08:00pm 19.7 21.4 17.1 85 1.6 SW 4 9 2 5 1015.9 - 0.0
23/07:30pm 20.4 21.7 17.6 84 1.7 SSW 7 7 4 4 1015.8 - 0.0
23/07:00pm 20.0 20.8 17.2 84 1.7 SSW 9 11 5 6 1015.7 - 0.0
23/06:30pm 21.0 23.5 17.2 79 2.3 CALM 0 0 0 0 1015.5 - 0.0
23/06:00pm 21.6 23.6 16.1 71 3.3 CALM 0 0 0 0 1015.2 1015.1 0.0
23/05:30pm 22.3 22.9 15.4 65 4.1 ENE 6 9 3 5 1014.9 - 0.0
23/05:00pm 24.0 23.6 15.2 58 5.3 E 11 13 6 7 1014.6 - 0.0
23/04:30pm 25.4 24.4 13.3 47 7.1 ESE 11 15 6 8 1014.4 - 0.0
23/04:00pm 26.1 24.5 12.9 44 7.7 ESE 13 22 7 12 1014.3 - 0.0
23/03:30pm 26.0 24.6 14.5 49 6.9 E 15 24 8 13 1014.2 - 0.0
23/03:00pm 27.0 24.9 14.7 47 7.4 E 19 26 10 14 1013.9 1013.8 0.0
23/02:30pm 27.1 24.6 15.1 47 7.3 ENE 22 32 12 17 1013.7 - 0.0
23/02:00pm 27.2 25.8 15.6 49 7.1 ENE 17 24 9 13 1013.9 - 0.0
23/01:30pm 27.3 26.7 15.6 48 7.1 E 13 17 7 9 1013.9 - 0.0
23/01:00pm 26.7 26.3 14.1 46 7.5 E 9 15 5 8 1014.2 - 0.0
23/12:30pm 26.4 25.4 13.5 45 7.6 S 11 15 6 8 1014.8 - 0.0
23/12:00pm 26.8 26.2 13.5 44 7.8 SW 9 11 5 6 1015.2 1015.1 0.0
23/11:30am 26.2 27.7 15.6 52 6.4 N 2 11 1 6 1015.8 - 0.0
23/11:00am 25.7 26.0 15.1 52 6.4 ENE 7 13 4 7 1016.4 - 0.0
23/10:30am 25.2 26.9 15.2 54 6.0 CALM 0 4 0 2 1016.7 - 0.0
23/10:00am 23.6 24.5 15.1 59 5.1 S 4 9 2 5 1017.0 - 0.0
23/09:30am 21.9 23.8 15.7 68 3.7 CALM 0 6 0 3 1017.2 - 0.0
23/09:00am 20.3 20.7 15.3 73 2.9 WNW 7 11 4 6 1017.5 1017.4 0.0
23/08:30am 18.9 18.8 14.0 73 2.8 WNW 7 9 4 5 1017.8 - 0.0
23/08:00am 18.1 18.2 14.0 77 2.3 WNW 6 7 3 4 1017.7 - 0.0
23/07:30am 17.0 17.0 14.1 83 1.7 WNW 7 9 4 5 1017.6 - 0.0
23/07:00am 15.9 15.3 13.6 86 1.3 WSW 9 11 5 6 1017.5 - 0.0
23/06:30am 15.3 15.2 13.3 88 1.1 NW 6 9 3 5 1017.2 - 0.0
23/06:00am 15.2 14.9 13.4 89 1.0 WNW 7 9 4 5 1016.9 1016.8 0.0
23/05:30am 15.4 14.9 13.8 90 0.9 W 9 13 5 7 1016.5 - 0.0
23/05:00am 15.7 15.5 13.7 88 1.1 WSW 7 9 4 5 1016.3 - 0.0
23/04:30am 16.1 16.2 13.8 86 1.3 W 6 9 3 5 1016.4 - 0.0
23/04:00am 16.3 16.3 14.3 88 1.1 W 7 11 4 6 1016.3 - 0.0
23/03:30am 16.3 16.3 14.3 88 1.1 W 7 11 4 6 1016.2 - 0.0
23/03:00am 16.0 15.9 13.8 87 1.2 NNW 7 9 4 5 1016.2 1016.1 0.0
23/02:30am 16.2 16.0 13.7 85 1.4 NNW 7 9 4 5 1016.3 - 0.0
23/02:00am 17.4 16.4 14.5 83 1.7 WSW 13 15 7 8 1016.3 - 0.0
23/01:30am 17.7 16.6 14.2 80 2.0 W 13 15 7 8 1016.4 - 0.0
23/01:00am 17.7 17.4 14.4 81 1.9 W 9 11 5 6 1016.5 - 0.0
23/12:30am 17.9 17.7 14.6 81 1.9 W 9 11 5 6 1016.6 - 0.0
23/12:00am 17.5 17.8 15.1 86 1.4 W 7 11 4 6 1016.4 1016.3 0.0
 
Date/Time
EST
Temp
°C
App
Temp
°C
Dew
Point
Rel
Hum
%
Delta-T
°C
Wind Press
QNH
hPa
Press
MSL
hPa
Rain
since 9 am
mm
Dir
 
Spd
km/h
Gust
km/h
Spd
kts
Gust
kts
22/11:30pm 17.8 18.8 15.4 86 1.4 SW 4 11 2 6 1016.4 - 0.0
22/11:00pm 17.7 18.0 15.9 89 1.1 W 9 9 5 5 1016.4 - 0.0
22/10:30pm 17.4 18.1 16.1 92 0.8 SW 7 9 4 5 1016.5 - 0.0
22/10:00pm 16.9 18.6 15.2 90 1.0 CALM 0 6 0 3 1016.5 - 0.0
22/09:30pm 17.8 19.4 16.0 89 1.1 WSW 2 6 1 3 1016.5 - 0.0
22/09:00pm 18.3 20.4 16.3 88 1.2 CALM 0 0 0 0 1016.5 1016.4 0.0
22/08:30pm 19.1 19.9 17.2 89 1.2 W 9 11 5 6 1016.5 - 0.0
22/08:00pm 19.4 20.8 17.7 90 1.0 W 7 9 4 5 1016.4 - 0.0
22/07:30pm 19.4 20.8 17.7 90 1.0 SSW 7 9 4 5 1016.3 - 0.0
22/07:00pm 19.4 21.2 17.5 89 1.2 SSW 4 11 2 6 1016.1 - 0.0
22/06:30pm 20.7 23.5 17.9 84 1.7 CALM 0 0 0 0 1016.0 - 0.0
22/06:00pm 21.0 22.7 17.2 79 2.3 ENE 4 7 2 4 1015.8 1015.7 0.0
22/05:30pm 21.4 22.1 17.0 76 2.7 NE 9 11 5 6 1015.7 - 0.0
22/05:00pm 22.7 23.5 17.2 71 3.4 NE 9 11 5 6 1015.5 - 0.0
22/04:30pm 23.7 24.5 17.4 68 3.9 NE 9 13 5 7 1015.4 - 0.0
22/04:00pm 24.6 23.9 17.3 64 4.5 ENE 17 19 9 10 1015.4 - 0.0
22/03:30pm 25.9 24.9 16.7 57 5.7 ENE 17 20 9 11 1015.4 - 0.0
22/03:00pm 27.1 26.6 12.7 41 8.4 N 7 11 4 6 1015.4 1015.3 0.0
22/02:30pm 26.7 26.2 12.7 42 8.1 N 7 11 4 6 1015.4 - 0.0
22/02:00pm 26.7 26.3 12.4 41 8.3 N 6 11 3 6 1015.5 - 0.0
22/01:30pm 26.5 25.7 11.8 40 8.4 NW 7 13 4 7 1015.8 - 0.0
22/01:00pm 26.4 25.6 12.8 43 7.9 NW 9 13 5 7 1016.1 - 0.0
22/12:30pm 25.9 25.2 13.1 45 7.5 N 9 15 5 8 1016.6 - 0.0
22/12:00pm 26.0 25.2 14.1 47 7.1 NW 11 17 6 9 1017.1 1017.0 0.0
22/11:30am 25.5 25.7 14.3 50 6.7 NNE 6 11 3 6 1017.5 - 0.0
22/11:00am 24.2 23.9 13.4 51 6.3 NNE 7 13 4 7 1017.9 - 0.0
22/10:30am 22.2 22.9 14.6 62 4.5 SSE 4 9 2 5 1018.4 - 0.0
22/10:00am 20.7 21.6 13.9 65 3.9 W 2 7 1 4 1018.6 - 0.0
22/09:30am 19.3 19.0 13.2 68 3.5 SW 7 9 4 5 1019.0 - 0.0
22/09:00am 17.8 17.0 12.9 73 2.7 WSW 9 11 5 6 1019.3 1019.2 0.0
22/08:30am 16.4 15.5 12.6 78 2.1 WSW 9 13 5 7 1019.5 - 0.0
22/08:00am 14.6 13.7 11.4 81 1.7 W 7 7 4 4 1019.4 - 0.0
22/07:30am 13.3 12.2 10.8 85 1.3 W 7 9 4 5 1019.4 - 0.0
22/07:00am 12.5 11.4 10.6 88 1.0 W 7 11 4 6 1019.1 - 0.0
22/06:30am 11.8 10.7 10.5 92 0.7 W 7 9 4 5 1019.1 - 0.0
22/06:00am 11.1 10.1 10.2 94 0.5 W 6 7 3 4 1019.0 1018.9 0.0
22/05:30am 11.2 11.0 10.6 96 0.3 WNW 2 7 1 4 1019.2 - 0.0
22/05:00am 10.4 10.3 9.6 95 0.4 CALM 0 0 0 0 1019.0 - 0.0
22/04:30am 11.2 11.2 9.8 91 0.7 CALM 0 0 0 0 1019.0 - 0.0
22/04:00am 10.9 10.0 9.3 90 0.8 WNW 4 7 2 4 1019.1 - 0.0
22/03:30am 12.2 11.7 10.8 91 0.7 WNW 4 9 2 5 1019.1 - 0.0
22/03:00am 12.4 11.3 10.8 90 0.8 W 7 9 4 5 1019.1 1019.0 0.0
22/02:30am 11.2 11.0 10.3 94 0.5 WNW 2 6 1 3 1019.2 - 0.0
22/02:00am 11.3 11.4 10.2 93 0.6 CALM 0 0 0 0 1019.4 - 0.0
22/01:30am 11.5 10.7 9.8 89 0.9 N 4 7 2 4 1019.7 - 0.0
22/01:00am 13.2 12.3 11.3 88 1.0 W 7 9 4 5 1019.9 - 0.0
22/12:30am 13.1 12.2 11.2 88 1.0 W 7 9 4 5 1020.0 - 0.0
22/12:00am 13.0 13.4 11.2 89 0.9 CALM 0 0 0 0 1020.2 1020.1 0.0
 
Date/Time
EST
Temp
°C
App
Temp
°C
Dew
Point
Rel
Hum
%
Delta-T
°C
Wind Press
QNH
hPa
Press
MSL
hPa
Rain
since 9 am
mm
Dir
 
Spd
km/h
Gust
km/h
Spd
kts
Gust
kts
21/11:30pm 12.6 12.8 10.7 88 1.0 CALM 0 0 0 0 1020.1 - 0.0
21/11:00pm 12.8 13.0 10.7 87 1.1 CALM 0 0 0 0 1020.4 - 0.0
21/10:30pm 13.5 13.9 11.2 86 1.2 CALM 0 0 0 0 1020.5 - 0.0
21/10:00pm 13.7 14.1 11.4 86 1.2 CALM 0 0 0 0 1020.6 - 0.0
21/09:30pm 13.7 14.0 11.0 84 1.4 CALM 0 6 0 3 1020.6 - 0.0
21/09:00pm 14.0 14.4 11.2 83 1.5 CALM 0 6 0 3 1020.6 1020.5 0.0
21/08:30pm 13.7 14.0 10.9 83 1.5 CALM 0 0 0 0 1020.5 - 0.0
21/08:00pm 14.4 14.7 11.0 80 1.8 CALM 0 0 0 0 1020.3 - 0.0
21/07:30pm 15.1 15.0 10.7 75 2.3 NW 2 7 1 4 1020.2 - 0.0
21/07:00pm 15.6 15.4 10.4 71 2.7 NNW 2 7 1 4 1019.8 - 0.0
21/06:30pm 16.4 16.5 10.3 67 3.2 CALM 0 0 0 0 1019.4 - 0.0
21/06:00pm 18.1 18.2 10.2 60 4.2 CALM 0 0 0 0 1019.1 1019.0 0.0
21/05:30pm 18.6 17.5 9.9 57 4.6 E 6 7 3 4 1018.7 - 0.0
21/05:00pm 20.5 19.2 10.0 51 5.6 E 7 9 4 5 1018.4 - 0.0
21/04:30pm 21.3 19.1 9.2 46 6.4 ESE 11 15 6 8 1018.3 - 0.0
21/04:00pm 21.8 19.5 10.3 48 6.3 ESE 13 19 7 10 1018.0 - 0.0
21/03:30pm 22.2 19.4 10.0 46 6.6 SE 15 19 8 10 1017.8 - 0.0
21/03:00pm 22.5 19.7 10.0 45 6.8 ESE 15 19 8 10 1017.9 1017.8 0.0

Other Formats:

Comma delimited format used in spreadsheet applications
http://www.bom.gov.au/fwo/IDN60801/IDN60801.95784.axf

JavaScript Object Notation format (JSON) in row-major order
http://www.bom.gov.au/fwo/IDN60801/IDN60801.95784.json